Aldine, Texas
Current Conditions -  °F | °C
As of 8:53 AM on Sunday 23 Nov 2014 (Local Time) from KIAH Reporting Station
Few Clouds Few Clouds  
Wind Chill: 18°   Ceiling: Unl
Heat Index: 18°   Visibility: 10mi
Dew Point: 15°   Wind: 9mph
Humidity: 84%   Direction: 260°W
Pressure: 29.67"   Gusts: NA
Location:  29.93°N, 95.38°W
Report Text: KIAH 231453Z 26008KT 10SM FEW013 18/15 A2967 RMK AO2 SLP046 T01780150 53003
Loading
Personal Weather Stations






























Interactive Weather Map New forecast layout! Learn more

10-Day Weather Forecast

Advertisements
Track Severe Weather on mobile